Terminal Aerodrome Forecast
Issued by NWS Sioux Falls, SD

Home | Current Version | Previous Version | Text Only | Print | Product List | Glossary On
Versions: 1 2 3 4 5 6 7 8 9 10 11 12 13 14 15 16 17
000
FTUS43 KFSD 111325 AAA
TAFFSD
TAF AMD
KFSD 111325Z 1113/1212 30017G29KT P6SM SCT025 OVC035
     FM111500 32021G32KT P6SM OVC020
     FM111800 34023G35KT P6SM OVC020
     FM112300 34019G29KT P6SM BKN045
     FM120000 34017G28KT P6SM SCT060
     FM120300 34013KT P6SM FEW120=

USA.gov is the U.S. government's official web portal to all federal, state and local government web resources and services.